createdAt,value
2023-07-02T00:01:50.003Z,-69
2023-07-02T00:06:51.274Z,-70
2023-07-02T00:11:52.469Z,-71
2023-07-02T00:16:53.698Z,-69
2023-07-02T00:21:54.956Z,-69
2023-07-02T00:26:56.132Z,-70
2023-07-02T00:31:57.522Z,-69
2023-07-02T00:36:58.684Z,-69
2023-07-02T00:41:59.862Z,-69
2023-07-02T00:47:01.208Z,-69
2023-07-02T00:52:02.444Z,-69
2023-07-02T00:57:04.410Z,-69
2023-07-02T01:02:06.252Z,-69
2023-07-02T01:07:10.820Z,-69
2023-07-02T01:12:12.079Z,-70
2023-07-02T01:17:13.264Z,-69
2023-07-02T01:22:14.460Z,-69
2023-07-02T01:27:15.885Z,-69
2023-07-02T01:32:17.085Z,-69
2023-07-02T01:37:19.161Z,-70
2023-07-02T01:42:20.546Z,-70
2023-07-02T01:47:21.934Z,-69
2023-07-02T01:52:23.161Z,-69
2023-07-02T01:57:24.354Z,-69
2023-07-02T02:02:25.636Z,-70
2023-07-02T02:07:27.212Z,-69
2023-07-02T02:12:29.481Z,-69
2023-07-02T02:17:30.680Z,-70
2023-07-02T02:22:31.898Z,-70
2023-07-02T02:27:33.212Z,-69
2023-07-02T02:32:34.420Z,-69
2023-07-02T02:37:36.449Z,-69
2023-07-02T02:42:37.671Z,-69
2023-07-02T02:47:38.912Z,-69
2023-07-02T02:52:40.130Z,-69
2023-07-02T02:57:41.506Z,-70
2023-07-02T03:02:42.796Z,-70
2023-07-02T03:07:44.048Z,-69
2023-07-02T03:12:45.344Z,-69
2023-07-02T03:17:46.574Z,-69
2023-07-02T03:22:47.767Z,-69
2023-07-02T03:27:49.039Z,-69
2023-07-02T03:32:50.382Z,-69
2023-07-02T03:37:51.598Z,-70
2023-07-02T03:42:52.820Z,-69
2023-07-02T03:47:54.179Z,-69
2023-07-02T03:52:55.385Z,-70
2023-07-02T03:57:56.618Z,-69
2023-07-02T04:02:57.825Z,-69
2023-07-02T04:07:59.386Z,-69
2023-07-02T04:13:00.571Z,-69
2023-07-02T04:18:02.005Z,-69
2023-07-02T04:23:03.190Z,-69
2023-07-02T04:28:04.369Z,-70
2023-07-02T04:33:06.621Z,-70
2023-07-02T04:38:08.223Z,-69
2023-07-02T04:43:09.463Z,-69
2023-07-02T04:48:10.627Z,-69
2023-07-02T04:53:11.897Z,-69
2023-07-02T04:58:13.083Z,-69
2023-07-02T05:03:14.286Z,-69
2023-07-02T05:08:15.488Z,-69
2023-07-02T05:13:16.707Z,-69
2023-07-02T05:18:17.877Z,-69
2023-07-02T05:23:19.050Z,-69
2023-07-02T05:28:20.258Z,-69
2023-07-02T05:33:22.997Z,-69
2023-07-02T05:38:25.143Z,-70
2023-07-02T05:43:26.295Z,-69
2023-07-02T05:48:27.658Z,-70
2023-07-02T05:53:28.827Z,-70
2023-07-02T05:58:39.247Z,-69
2023-07-02T06:03:46.334Z,-69
2023-07-02T06:08:47.696Z,-69
2023-07-02T06:13:48.887Z,-69
2023-07-02T06:18:50.116Z,-69
2023-07-02T06:23:51.458Z,-68
2023-07-02T06:28:52.701Z,-69
2023-07-02T06:33:53.919Z,-69
2023-07-02T06:38:55.081Z,-69
2023-07-02T06:43:56.249Z,-69
2023-07-02T06:48:57.449Z,-69
2023-07-02T06:53:58.670Z,-70
2023-07-02T06:58:59.849Z,-69
2023-07-02T07:04:01.150Z,-69
2023-07-02T07:09:02.364Z,-69
2023-07-02T07:14:03.736Z,-71
2023-07-02T07:19:04.946Z,-69
2023-07-02T07:24:06.109Z,-69
2023-07-02T07:29:07.292Z,-69
2023-07-02T07:34:08.511Z,-69
2023-07-02T07:39:09.694Z,-69
2023-07-02T07:44:10.865Z,-69
2023-07-02T07:49:12.078Z,-69
2023-07-02T07:54:13.280Z,-69
2023-07-02T07:59:15.778Z,-69
2023-07-02T08:04:16.993Z,-69
2023-07-02T08:09:18.300Z,-69
2023-07-02T08:14:22.237Z,-69
2023-07-02T08:19:23.851Z,-69
2023-07-02T08:24:25.933Z,-70
2023-07-02T08:29:27.109Z,-70
2023-07-02T08:34:28.337Z,-70
2023-07-02T08:39:29.506Z,-67
2023-07-02T08:44:30.658Z,-67
2023-07-02T08:49:31.821Z,-67
2023-07-02T08:54:32.996Z,-67
2023-07-02T08:59:34.175Z,-67
2023-07-02T09:04:35.429Z,-68
2023-07-02T09:09:36.626Z,-70
2023-07-02T09:14:37.779Z,-70
2023-07-02T09:19:39.029Z,-71
2023-07-02T09:24:44.232Z,-71
2023-07-02T09:29:45.585Z,-71
2023-07-02T09:34:46.884Z,-70
2023-07-02T09:39:48.086Z,-70
2023-07-02T09:44:49.264Z,-70
2023-07-02T09:49:50.465Z,-71
2023-07-02T09:54:51.657Z,-70
2023-07-02T09:59:52.867Z,-70
2023-07-02T10:04:56.281Z,-70
2023-07-02T10:09:57.717Z,-69
2023-07-02T10:14:59.088Z,-70
2023-07-02T10:20:00.388Z,-71
2023-07-02T10:25:02.085Z,-71
2023-07-02T10:30:04.684Z,-71
2023-07-02T10:35:07.338Z,-71
2023-07-02T10:40:08.748Z,-71
2023-07-02T10:45:09.934Z,-71
2023-07-02T10:50:11.106Z,-70
2023-07-02T10:55:14.397Z,-70
2023-07-02T11:00:15.710Z,-71
2023-07-02T11:05:17.029Z,-71
2023-07-02T11:10:18.240Z,-70
2023-07-02T11:15:19.474Z,-72
2023-07-02T11:20:20.653Z,-70
2023-07-02T11:25:21.874Z,-69
2023-07-02T11:30:23.070Z,-69
2023-07-02T11:35:24.309Z,-70
2023-07-02T11:40:25.506Z,-69
2023-07-02T11:45:26.716Z,-71
2023-07-02T11:50:27.900Z,-70
2023-07-02T11:55:29.093Z,-70
2023-07-02T12:00:30.282Z,-71
2023-07-02T12:05:31.461Z,-70
2023-07-02T12:10:32.622Z,-71
2023-07-02T12:15:33.782Z,-69
2023-07-02T12:20:34.999Z,-71
2023-07-02T12:25:36.249Z,-69
2023-07-02T12:30:37.477Z,-69
2023-07-02T12:35:38.708Z,-72
2023-07-02T12:40:39.874Z,-72
2023-07-02T12:45:41.038Z,-71
2023-07-02T12:50:42.253Z,-69
2023-07-02T12:55:43.450Z,-70
2023-07-02T13:00:45.648Z,-71
2023-07-02T13:05:46.986Z,-71
2023-07-02T13:10:48.463Z,-72
2023-07-02T13:15:49.873Z,-70
2023-07-02T13:20:51.236Z,-72
2023-07-02T13:25:52.625Z,-73
2023-07-02T13:30:53.834Z,-71
2023-07-02T13:35:54.984Z,-71
2023-07-02T13:40:56.142Z,-72
2023-07-02T13:45:57.359Z,-71
2023-07-02T13:50:58.602Z,-72
2023-07-02T13:55:59.782Z,-71
2023-07-02T14:01:01.065Z,-73
2023-07-02T14:06:02.365Z,-71
2023-07-02T14:11:03.537Z,-71
2023-07-02T14:16:04.816Z,-71
2023-07-02T14:21:06.145Z,-71
2023-07-02T14:26:07.348Z,-71
2023-07-02T14:31:08.652Z,-72
2023-07-02T14:36:09.875Z,-73
2023-07-02T14:41:11.044Z,-71
2023-07-02T14:46:12.422Z,-72
2023-07-02T14:51:13.580Z,-71
2023-07-02T14:56:14.803Z,-72
2023-07-02T15:01:17.293Z,-73
2023-07-02T15:06:18.725Z,-73
2023-07-02T15:11:19.940Z,-73
2023-07-02T15:16:22.450Z,-73
2023-07-02T15:21:25.470Z,-72
2023-07-02T15:26:26.775Z,-73
2023-07-02T15:31:27.961Z,-72
2023-07-02T15:36:29.864Z,-73
2023-07-02T15:41:31.175Z,-71
2023-07-02T15:46:33.822Z,-72
2023-07-02T15:51:37.799Z,-72
2023-07-02T15:56:39.062Z,-72
2023-07-02T16:01:40.506Z,-71
2023-07-02T16:06:41.821Z,-71
2023-07-02T16:11:43.344Z,-72
2023-07-02T16:16:44.789Z,-72
2023-07-02T16:21:46.145Z,-72
2023-07-02T16:26:47.334Z,-71
2023-07-02T16:31:48.620Z,-71
2023-07-02T16:36:49.879Z,-69
2023-07-02T16:41:51.101Z,-70
2023-07-02T16:46:55.293Z,-71
2023-07-02T16:51:56.644Z,-71
2023-07-02T16:56:57.818Z,-72
2023-07-02T17:01:59.059Z,-71
2023-07-02T17:07:00.313Z,-71
2023-07-02T17:12:02.993Z,-70
2023-07-02T17:17:04.518Z,-72
2023-07-02T17:22:05.922Z,-72
2023-07-02T17:27:07.790Z,-70
2023-07-02T17:32:08.953Z,-71
2023-07-02T17:37:10.171Z,-71
2023-07-02T17:42:13.255Z,-73
2023-07-02T17:47:14.469Z,-70
2023-07-02T17:52:15.685Z,-70
2023-07-02T17:57:16.886Z,-68
2023-07-02T18:02:20.573Z,-72
2023-07-02T18:07:21.776Z,-72
2023-07-02T18:12:26.067Z,-72
2023-07-02T18:17:27.316Z,-73
2023-07-02T18:22:28.606Z,-74
2023-07-02T18:27:29.769Z,-73
2023-07-02T18:32:31.159Z,-74
2023-07-02T18:37:32.541Z,-73
2023-07-02T18:42:33.695Z,-74
2023-07-02T18:47:34.880Z,-73
2023-07-02T18:52:36.088Z,-73
2023-07-02T18:57:37.357Z,-73
2023-07-02T19:02:38.734Z,-72
2023-07-02T19:07:40.067Z,-73
2023-07-02T19:12:42.869Z,-71
2023-07-02T19:17:44.548Z,-70
2023-07-02T19:22:46.260Z,-74
2023-07-02T19:27:50.826Z,-73
2023-07-02T19:32:52.098Z,-72
2023-07-02T19:37:53.281Z,-73
2023-07-02T19:42:54.548Z,-73
2023-07-02T19:47:55.756Z,-72
2023-07-02T19:52:56.939Z,-73
2023-07-02T19:57:58.128Z,-74
2023-07-02T20:02:59.333Z,-73
2023-07-02T20:08:00.587Z,-73
2023-07-02T20:13:01.755Z,-73
2023-07-02T20:18:04.217Z,-73
2023-07-02T20:23:05.412Z,-74
2023-07-02T20:28:06.631Z,-74
2023-07-02T20:33:07.841Z,-73
2023-07-02T20:38:09.092Z,-73
2023-07-02T20:43:14.472Z,-73
2023-07-02T20:48:15.851Z,-73
2023-07-02T20:53:17.036Z,-73
2023-07-02T20:58:18.400Z,-74
2023-07-02T21:03:19.690Z,-74
2023-07-02T21:08:22.997Z,-72
2023-07-02T21:13:24.173Z,-72
2023-07-02T21:18:25.334Z,-72
2023-07-02T21:23:26.497Z,-72
2023-07-02T21:28:27.716Z,-70
2023-07-02T21:33:28.879Z,-71
2023-07-02T21:38:30.057Z,-71
2023-07-02T21:43:31.250Z,-72
2023-07-02T21:48:32.431Z,-71
2023-07-02T21:53:33.605Z,-71
2023-07-02T21:58:34.790Z,-71
2023-07-02T22:03:36.021Z,-71
2023-07-02T22:08:37.241Z,-71
2023-07-02T22:13:38.403Z,-71
2023-07-02T22:18:42.511Z,-72
2023-07-02T22:23:46.740Z,-72
2023-07-02T22:28:47.978Z,-72
2023-07-02T22:33:49.183Z,-70
2023-07-02T22:38:50.366Z,-71
2023-07-02T22:43:51.801Z,-72
2023-07-02T22:48:53.006Z,-72
2023-07-02T22:53:54.322Z,-70
2023-07-02T22:58:55.512Z,-72
2023-07-02T23:03:56.826Z,-72
2023-07-02T23:08:58.084Z,-72
2023-07-02T23:13:59.271Z,-72
2023-07-02T23:19:00.440Z,-71
2023-07-02T23:24:01.632Z,-71
2023-07-02T23:29:02.859Z,-72
2023-07-02T23:34:04.090Z,-71
2023-07-02T23:39:05.897Z,-71
2023-07-02T23:44:07.350Z,-71
2023-07-02T23:49:08.515Z,-71
2023-07-02T23:54:09.730Z,-71
2023-07-02T23:59:10.889Z,-71
